Providenciales, Turks Islands

2:15 AM AST on July 28, 2016 (GMT -0400)
Providenciales International | | Change Station

Elev 16 ft 21.77 °N, 72.27 °W | Updated 7 hours ago

Partly Cloudy
Partly Cloudy
82 °F
Feels Like 91 °F
N
15
Wind Variable Wind from East
Gusts mph

Today
High -- | Low -- °F
--% Chance of Precip.
Yesterday
High -- | Low -- °F
Precip. -- in
Pressure 30.01 in
Visibility 6.2 miles
Clouds Scattered Clouds 1500 ft
Heat Index 91 °F
Dew Point 77 °F
Humidity 85%
Rainfall 0.00 in
Snow Depth Not available.
6:20 AM 7:30 PM
Waning Crescent, 35% visible
METAR MBPV 272300Z 13009KT 9999 SCT015 30/25 Q1016
Pressure 30.01 in
Visibility 6.2 miles
Clouds Scattered Clouds 1500 ft
Heat Index 91 °F
Dew Point 77 °F
Humidity 85%
Rainfall 0.00 in
Snow Depth Not available.
6:20 AM 7:30 PM
Waning Crescent, 35% visible
METAR MBPV 272300Z 13009KT 9999 SCT015 30/25 Q1016

10-Day Weather Forecast

No radar image for this location.
×

Almanac

Astronomy

Jul. 28, 2016 Rise Set
Actual Time
Civil Twilight
Nautical Twilight
Astronomical Twilight
Moon
Length of Visible Light
Length of Day
Tomorrow will be .
, % of the Moon is Illuminated

Today's Extremes

Country Highs Country Lows

Community

WunderPhotos

Upload Photos

1,928,064 photos uploaded!

WunderBlog® & News

Nearby

Air Quality

  Air Quality AQ Index Pollutant
Not available.

Snow Depth

Station Depth Elevation

Earthquake Activity

City Distance Mag. Time & Date
Minimum magnitude displayed is 2.5.

Coastal Water Temperatures

Place Temperature

Stations

Nearby Weather Stations

Station Location Temp. Windchill Dew Point Humidity Wind Precip. Elev Updated Type